Friday, May 25, 2018, 8:38 AM EDT
Back to Local

KMLT, Millinocket Municipal Airport

Location: Millinocket, ME, United States Lat: 45.65
Local Time: 8:38 AM EDT (12:38 GMT) Lon: -68.7
Time Zone: US/Eastern Elev: 406 ft

Show me the last for .
Show Coded

Time T Td Feel RH Dir Speed Gust Alt SLP Vis Weather Sky Remarks
2018-05-25 07:53 59 47 - 64 - Calm - 29.69 29.70 10 SCT110 6-hr Min Temp (8am): 50.0°F
6-hr Max Temp (8am): 59.0°F
2018-05-25 06:53 53 45 - 73 - Calm - 29.71 29.72 10 FEW110 None
2018-05-25 05:53 51 44 - 76 - Calm - 29.71 29.72 10 SCT120 None
2018-05-25 04:53 50 44 49 79 Variable 3 - 29.71 29.72 10 CLR None
2018-05-25 03:53 50 45 48 82 Variable 5 - 29.75 29.77 10 OVC110 None
2018-05-25 02:53 50 45 - 82 - Calm - 29.78 29.80 10 SCT110 None
2018-05-25 01:53 50 45 - 82 - Calm - 29.82 29.83 10 CLR Pressure falling rapidly
6-hr Min Temp (2am): 50.0°F
6-hr Max Temp (2am): 59.0°F
2018-05-25 00:53 51 45 - 79 - Calm - 29.87 29.88 10 CLR 24-hr Min Temp (1am): 37.0°F
24-hr Max Temp (1am): 66.9°F
2018-05-24 23:53 52 45 - 76 Variable 3 - 29.90 29.92 10 CLR None
2018-05-24 22:53 53 44 - 71 - Calm - 29.95 29.96 10 OVC095 None
2018-05-24 21:53 55 43 - 63 160° 7 - 29.96 29.97 10 FEW060 SCT075 OVC090 None
2018-05-24 20:53 57 44 - 61 Variable 6 - 29.95 29.96 10 FEW075 OVC100 None
2018-05-24 19:53 59 42 - 53 - Calm - 29.96 29.97 10 OVC080 6-hr Min Temp (8pm): 59.0°F
6-hr Max Temp (8pm): 66.9°F
2018-05-24 18:53 62 32 - 32 - Calm - 29.95 29.96 10 OVC090 None
2018-05-24 17:53 64 29 - 26 270° 3 - 29.95 29.97 10 OVC100 None
2018-05-24 16:53 65 29 - 25 Variable 3 - 29.96 29.98 10 OVC110 None
2018-05-24 15:53 66 27 - 22 Variable 7 - 29.98 29.99 10 CLR None
2018-05-24 14:53 66 30 - 25 Variable 7 - 30.00 30.01 10 CLR None
2018-05-24 13:53 64 32 - 30 300° 8 - 30.02 30.03 10 CLR 6-hr Min Temp (2pm): 48.9°F
6-hr Max Temp (2pm): 64.9°F
2018-05-24 12:53 63 33 - 32 260° 8 - 30.04 30.06 10 FEW075 None
2018-05-24 11:53 61 33 - 34 240° 8 - 30.07 30.09 10 BKN070 None
2018-05-24 10:53 58 32 - 37 Variable 5 - 30.08 30.10 10 CLR None
2018-05-24 09:53 56 34 - 43 Variable 5 - 30.09 30.11 10 CLR None
2018-05-24 08:53 54 37 - 52 Variable 6 - 30.10 30.12 10 CLR None

Support USWX by starting your Amazon purchase here.